Time;durP1;ratioP1;P1;durP2;ratioP2;P2;SDS_P1;SDS_P2;PMS_P1;PMS_P2;Temp;Humidity;BMP_temperature;BMP_pressure;BME280_temperature;BME280_humidity;BME280_pressure;Samples;Min_cycle;Max_cycle;Signal;HPM_P1;HPM_P2
2023/07/28 00:02:04;;;;;;;6.93;3.88;;;;;;;16.73;100.00;98193.38;5036929;28;20035;-54
2023/07/28 00:04:29;;;;;;;5.32;3.88;;;;;;;16.71;100.00;98181.06;5035817;28;20441;-54
2023/07/28 00:06:55;;;;;;;4.93;3.50;;;;;;;16.70;100.00;98193.09;5039377;28;20033;-54
2023/07/28 00:09:20;;;;;;;5.65;3.53;;;;;;;16.74;100.00;98199.66;5041787;28;20023;-54
2023/07/28 00:11:46;;;;;;;6.60;3.42;;;;;;;16.75;100.00;98199.41;5038758;28;20115;-54
2023/07/28 00:14:11;;;;;;;5.55;3.25;;;;;;;16.73;100.00;98200.75;5039039;28;20036;-54
2023/07/28 00:16:37;;;;;;;4.78;3.00;;;;;;;16.80;100.00;98195.94;5041508;28;20040;-54
2023/07/28 00:19:03;;;;;;;5.55;3.65;;;;;;;16.77;100.00;98193.72;5033422;28;20040;-54
2023/07/28 00:21:29;;;;;;;4.35;3.17;;;;;;;16.75;100.00;98199.41;5046294;28;20540;-53
2023/07/28 00:23:54;;;;;;;4.30;3.40;;;;;;;16.76;100.00;98198.31;5035868;28;20022;-54
2023/07/28 00:26:19;;;;;;;5.78;3.40;;;;;;;16.76;100.00;98195.59;5032825;28;20151;-54
2023/07/28 00:28:45;;;;;;;5.45;3.72;;;;;;;16.77;100.00;98197.28;5038073;28;20059;-54
2023/07/28 00:31:10;;;;;;;7.15;3.53;;;;;;;16.78;100.00;98193.47;5032432;28;20029;-54
2023/07/28 00:33:37;;;;;;;5.70;3.55;;;;;;;16.83;100.00;98196.25;5035193;28;20508;-54
2023/07/28 00:36:02;;;;;;;5.75;3.22;;;;;;;16.79;100.00;98186.94;5041955;28;20057;-54
2023/07/28 00:38:28;;;;;;;4.25;3.15;;;;;;;16.80;100.00;98191.31;5033079;28;20171;-55
2023/07/28 00:40:53;;;;;;;5.88;3.33;;;;;;;16.76;100.00;98181.94;5043266;28;20095;-54
2023/07/28 00:43:18;;;;;;;5.93;3.40;;;;;;;16.76;100.00;98184.66;5042104;28;20539;-54
2023/07/28 00:45:44;;;;;;;4.53;3.10;;;;;;;16.76;100.00;98195.59;5034908;28;20033;-54
2023/07/28 00:48:12;;;;;;;4.68;3.15;;;;;;;16.77;100.00;98200.03;5048552;28;20096;-54
2023/07/28 00:50:40;;;;;;;4.60;3.35;;;;;;;16.74;100.00;98195.03;5045467;28;20029;-53
2023/07/28 00:53:06;;;;;;;5.07;3.97;;;;;;;16.75;100.00;98199.41;5037973;28;20404;-54
2023/07/28 00:55:32;;;;;;;7.32;4.05;;;;;;;16.74;100.00;98207.84;5036265;28;20083;-54
2023/07/28 00:57:57;;;;;;;5.35;3.95;;;;;;;16.73;100.00;98193.38;5038876;28;20092;-55
2023/07/28 01:00:22;;;;;;;7.70;4.20;;;;;;;16.70;100.00;98196.63;5047407;28;20029;-54
2023/07/28 01:02:48;;;;;;;5.63;3.97;;;;;;;16.66;100.00;98192.75;5054500;28;20104;-54
2023/07/28 01:05:13;;;;;;;5.75;4.15;;;;;;;16.63;100.00;98193.28;5037225;28;20128;-54
2023/07/28 01:08:21;;;;;;;7.55;4.00;;;;;;;16.57;100.00;98188.84;5043308;28;20090;-54
2023/07/28 01:10:46;;;;;;;7.28;4.45;;;;;;;16.53;100.00;98185.81;4947281;29;20122;-54
2023/07/28 01:13:12;;;;;;;8.20;4.82;;;;;;;16.53;100.00;98187.72;5028401;28;20033;-54
2023/07/28 01:15:37;;;;;;;6.78;4.65;;;;;;;16.52;100.00;98199.72;5042105;28;20028;-54
2023/07/28 01:18:02;;;;;;;8.48;4.60;;;;;;;16.53;100.00;98195.91;5043451;28;20031;-54
2023/07/28 01:20:33;;;;;;;6.38;4.40;;;;;;;16.52;100.00;98186.88;5039932;28;20040;-54
2023/07/28 01:23:13;;;;;;;8.45;4.35;;;;;;;16.52;100.00;98184.16;5044549;28;20026;-54
2023/07/28 01:25:51;;;;;;;9.93;4.43;;;;;;;16.57;100.00;98188.84;5039796;28;20030;-54
2023/07/28 01:28:18;;;;;;;6.35;4.20;;;;;;;16.59;100.00;98178.50;5052464;28;20033;-54
2023/07/28 01:30:43;;;;;;;6.88;4.10;;;;;;;16.61;100.00;98176.31;5039479;28;20044;-54
2023/07/28 01:33:08;;;;;;;7.75;4.68;;;;;;;16.60;100.00;98174.69;5060958;28;20033;-54
2023/07/28 01:35:37;;;;;;;6.22;4.07;;;;;;;16.59;100.00;98175.78;5040694;28;20025;-54
2023/07/28 01:38:02;;;;;;;7.97;4.17;;;;;;;16.51;100.00;98179.78;5048345;28;20039;-54
2023/07/28 01:40:28;;;;;;;8.77;4.63;;;;;;;16.49;100.00;98181.13;5046813;28;20029;-55
2023/07/28 01:42:53;;;;;;;6.22;3.55;;;;;;;16.35;100.00;98184.25;5052633;28;20039;-53
2023/07/28 01:45:19;;;;;;;5.72;4.05;;;;;;;16.24;100.00;98185.19;5045486;28;20031;-54
2023/07/28 01:47:44;;;;;;;5.97;3.95;;;;;;;16.14;100.00;98187.84;5042535;28;20056;-54
2023/07/28 01:50:09;;;;;;;6.75;4.32;;;;;;;16.13;100.00;98178.81;5047467;28;21860;-53
2023/07/28 01:52:35;;;;;;;10.02;4.78;;;;;;;16.11;100.00;98183.72;5041067;28;20021;-54
2023/07/28 01:55:00;;;;;;;7.72;4.57;;;;;;;16.10;100.00;98179.31;5046169;28;20032;-54
2023/07/28 01:57:27;;;;;;;7.75;4.50;;;;;;;16.12;100.00;98184.53;5047372;28;20119;-54
2023/07/28 01:59:54;;;;;;;6.25;4.40;;;;;;;16.16;100.00;98185.66;5038761;28;20033;-53
2023/07/28 02:02:20;;;;;;;6.63;4.22;;;;;;;16.17;100.00;98182.69;5036121;28;20393;-53
2023/07/28 02:04:46;;;;;;;7.20;4.47;;;;;;;16.17;100.00;98182.69;5039549;28;20025;-53
2023/07/28 02:07:11;;;;;;;8.77;4.63;;;;;;;16.13;100.00;98178.81;5036121;28;20035;-53
2023/07/28 02:09:36;;;;;;;9.63;4.35;;;;;;;16.09;100.00;98185.06;5041457;28;20400;-53
2023/07/28 02:12:07;;;;;;;14.85;5.40;;;;;;;16.07;100.00;98179.84;5035179;28;20029;-53
2023/07/28 02:14:32;;;;;;;8.35;4.68;;;;;;;16.04;100.00;98177.63;5041121;28;20132;-53
2023/07/28 02:16:58;;;;;;;9.27;4.57;;;;;;;16.01;100.00;98186.31;5041158;28;20116;-54
2023/07/28 02:19:24;;;;;;;8.43;4.50;;;;;;;15.98;100.00;98176.72;5038873;28;20029;-54
2023/07/28 02:21:49;;;;;;;7.43;4.70;;;;;;;15.93;100.00;98165.75;5044211;28;20032;-53
2023/07/28 02:24:15;;;;;;;13.55;5.50;;;;;;;16.04;100.00;98177.63;5053383;28;20031;-54
2023/07/28 02:26:40;;;;;;;8.10;4.90;;;;;;;16.02;100.00;98178.94;5040297;28;20025;-54
2023/07/28 02:29:05;;;;;;;7.72;4.38;;;;;;;16.01;100.00;98186.31;5047557;28;20071;-54
2023/07/28 02:31:31;;;;;;;6.35;4.28;;;;;;;15.98;100.00;98182.19;5043369;28;20029;-53
2023/07/28 02:33:57;;;;;;;9.18;4.90;;;;;;;15.99;100.00;98181.09;5040458;28;20018;-54
2023/07/28 02:36:23;;;;;;;5.63;4.25;;;;;;;16.02;100.00;98187.13;5034325;28;20025;-54
2023/07/28 02:38:48;;;;;;;5.53;4.22;;;;;;;16.01;100.00;98183.59;5052241;28;20033;-54
2023/07/28 02:41:13;;;;;;;6.25;4.30;;;;;;;16.02;100.00;98189.88;5041471;28;20108;-53
2023/07/28 02:43:39;;;;;;;7.43;4.13;;;;;;;15.99;100.00;98192.00;5042816;28;20084;-53
2023/07/28 02:46:04;;;;;;;6.40;4.30;;;;;;;15.97;100.00;98196.88;5043112;28;20021;-54
2023/07/28 02:48:30;;;;;;;8.40;4.45;;;;;;;15.96;100.00;98181.59;5046716;28;20120;-54
2023/07/28 02:50:55;;;;;;;7.70;3.80;;;;;;;15.96;100.00;98192.53;5042429;28;20075;-54
2023/07/28 02:53:21;;;;;;;5.13;3.90;;;;;;;15.95;100.00;98190.84;5042540;28;20495;-54
2023/07/28 02:55:47;;;;;;;8.07;4.10;;;;;;;15.94;100.00;98191.94;5042202;28;20536;-54
2023/07/28 03:00:43;;;;;;;7.38;3.85;;;;;;;15.98;100.00;98206.75;5050271;22;20037;-71
2023/07/28 03:03:10;;;;;;;8.15;3.90;;;;;;;15.94;100.00;98202.84;5033464;28;20026;-70
2023/07/28 03:05:36;;;;;;;5.05;3.25;;;;;;;15.94;100.00;98208.31;5021405;28;20034;-71
2023/07/28 03:08:02;;;;;;;9.07;3.38;;;;;;;15.93;100.00;98230.41;5029899;28;20025;-70
2023/07/28 03:10:27;;;;;;;7.30;3.80;;;;;;;15.87;100.00;98225.94;5009005;28;20041;-71
2023/07/28 03:12:53;;;;;;;5.13;3.30;;;;;;;15.93;100.00;98236.69;5004375;28;20022;-71
2023/07/28 03:15:18;;;;;;;8.80;3.90;;;;;;;15.85;100.00;98237.13;5000470;28;20022;-71
2023/07/28 03:17:43;;;;;;;5.95;3.72;;;;;;;15.89;100.00;98240.16;5012962;28;20026;-70
2023/07/28 03:20:09;;;;;;;5.55;3.58;;;;;;;15.84;100.00;98238.19;5011469;28;20026;-71
2023/07/28 03:22:35;;;;;;;6.63;3.22;;;;;;;15.86;100.00;98246.94;5010909;28;20034;-71
2023/07/28 03:25:03;;;;;;;6.35;3.70;;;;;;;15.87;100.00;98251.31;5004371;28;20103;-71
2023/07/28 03:27:28;;;;;;;5.75;3.92;;;;;;;15.90;100.00;98258.16;5011904;28;20087;-71
2023/07/28 03:29:53;;;;;;;4.68;3.60;;;;;;;15.90;100.00;98253.56;5010833;28;20030;-71
2023/07/28 03:32:19;;;;;;;4.88;3.38;;;;;;;15.97;100.00;98261.56;5005159;28;20049;-71
2023/07/28 03:34:44;;;;;;;6.97;3.92;;;;;;;15.93;100.00;98263.97;5002675;28;20029;-71
2023/07/28 03:37:09;;;;;;;5.50;4.18;;;;;;;15.95;100.00;98266.44;5007014;28;20030;-71
2023/07/28 03:39:34;;;;;;;4.60;3.63;;;;;;;16.01;100.00;98273.63;5010226;28;20160;-71
2023/07/28 03:42:00;;;;;;;9.30;3.97;;;;;;;16.00;100.00;98269.22;5012393;28;20030;-72
2023/07/28 03:44:25;;;;;;;9.93;3.80;;;;;;;16.02;100.00;98267.09;5009880;28;20037;-72
2023/07/28 03:46:50;;;;;;;7.03;3.97;;;;;;;16.00;100.00;98272.78;5004662;28;20030;-71
2023/07/28 03:49:16;;;;;;;9.75;4.28;;;;;;;16.00;100.00;98278.22;4998485;28;20032;-72
2023/07/28 03:51:41;;;;;;;6.45;3.88;;;;;;;16.02;100.00;98274.44;5008811;28;20487;-71
2023/07/28 03:54:06;;;;;;;5.68;4.03;;;;;;;16.01;100.00;98265.44;5010114;28;20109;-72
2023/07/28 03:56:32;;;;;;;5.97;4.00;;;;;;;16.07;100.00;98279.97;5012020;28;20025;-72
2023/07/28 03:58:57;;;;;;;7.78;3.88;;;;;;;16.04;100.00;98275.84;4996524;28;20030;-75
2023/07/28 04:01:24;;;;;;;5.43;3.85;;;;;;;15.92;100.00;98243.19;5005690;28;20029;-73
2023/07/28 04:03:49;;;;;;;6.43;3.92;;;;;;;15.99;100.00;98251.22;5007348;28;20029;-74
2023/07/28 04:06:15;;;;;;;5.32;3.67;;;;;;;16.00;100.00;98263.78;5005648;28;20022;-74
2023/07/28 04:08:40;;;;;;;8.43;4.45;;;;;;;16.00;100.00;98259.13;5005261;28;20467;-74
2023/07/28 04:11:06;;;;;;;12.30;3.80;;;;;;;15.89;100.00;98253.81;5002292;28;20467;-76
2023/07/28 04:13:32;;;;;;;7.78;3.70;;;;;;;15.88;100.00;98254.91;5025791;28;20038;-73
2023/07/28 04:15:57;;;;;;;11.57;3.92;;;;;;;15.82;100.00;98253.97;5008292;28;20066;-76
2023/07/28 04:18:23;;;;;;;10.32;3.70;;;;;;;15.72;100.00;98235.56;5013985;28;20030;-76
2023/07/28 04:20:48;;;;;;;7.85;4.10;;;;;;;15.81;100.00;98255.06;5013055;28;20092;-77
2023/07/28 04:23:14;;;;;;;10.32;4.68;;;;;;;15.77;100.00;98253.88;5011160;28;20022;-77
2023/07/28 04:25:39;;;;;;;7.90;3.97;;;;;;;15.68;100.00;98249.91;5012493;28;20017;-77
2023/07/28 04:28:04;;;;;;;7.05;4.28;;;;;;;15.75;100.00;98250.63;5004675;28;20031;-79
2023/07/28 04:30:30;;;;;;;6.25;3.97;;;;;;;15.75;100.00;98245.97;5004177;28;20034;-78
2023/07/28 04:32:55;;;;;;;8.20;4.32;;;;;;;15.86;100.00;98262.50;5004941;28;20030;-78
2023/07/28 04:35:20;;;;;;;6.30;4.85;;;;;;;15.91;100.00;98263.38;5003526;28;20553;-79
2023/07/28 04:37:46;;;;;;;7.88;4.05;;;;;;;15.79;100.00;98229.94;5017893;28;20030;-77
2023/07/28 04:40:12;;;;;;;5.68;4.15;;;;;;;15.87;100.00;98247.75;5013598;28;20025;-77
2023/07/28 04:42:41;;;;;;;8.82;3.95;;;;;;;15.96;100.00;98257.19;5018879;28;20017;-77
2023/07/28 04:45:07;;;;;;;;;;;;;;;16.01;100.00;98257.25;5013597;28;20014;-79
2023/07/28 04:47:35;;;;;;;8.48;4.30;;;;;;;15.95;100.00;98241.88;5011448;28;20383;-78
2023/07/28 04:50:01;;;;;;;7.15;4.45;;;;;;;16.02;100.00;98267.09;5005664;28;20021;-75
2023/07/28 04:52:26;;;;;;;6.15;4.35;;;;;;;15.91;100.00;98238.84;5015699;28;20053;-77
2023/07/28 04:54:51;;;;;;;7.78;4.32;;;;;;;15.94;100.00;98248.41;5009589;28;20030;-77
2023/07/28 04:57:19;;;;;;;8.27;4.82;;;;;;;16.00;100.00;98258.31;5012658;28;20172;-78
2023/07/28 04:59:44;;;;;;;8.55;4.63;;;;;;;16.00;100.00;98261.88;5015276;28;20028;-79
2023/07/28 05:02:10;;;;;;;9.15;4.93;;;;;;;16.03;100.00;98251.53;5014485;28;20030;-80
2023/07/28 05:04:36;;;;;;;6.72;4.55;;;;;;;16.10;100.00;98252.19;5028005;28;20033;-76
2023/07/28 05:09:54;;;;;;;6.20;3.90;;;;;;;16.26;100.00;98270.41;5050307;28;20053;-67
2023/07/28 05:12:20;;;;;;;7.53;4.55;;;;;;;16.24;100.00;98264.34;5043966;28;20523;-66
2023/07/28 05:14:46;;;;;;;9.25;4.60;;;;;;;16.26;100.00;98267.66;5029163;28;20029;-66
2023/07/28 05:17:11;;;;;;;9.95;4.75;;;;;;;16.26;100.00;98267.66;5026670;28;20029;-68
2023/07/28 05:19:37;;;;;;;6.82;4.93;;;;;;;16.25;100.00;98279.69;5048486;28;20040;-67
2023/07/28 05:22:02;;;;;;;10.20;4.70;;;;;;;16.26;100.00;98270.41;5035675;28;20025;-66
2023/07/28 05:24:28;;;;;;;5.70;3.88;;;;;;;16.29;100.00;98269.88;5037434;28;20365;-66
2023/07/28 05:26:53;;;;;;;8.40;4.28;;;;;;;16.31;100.00;98272.38;5041402;28;20033;-60
2023/07/28 05:29:19;;;;;;;8.50;4.70;;;;;;;16.32;100.00;98277.59;5047807;28;20043;-60
2023/07/28 05:31:45;;;;;;;7.78;4.20;;;;;;;16.37;100.00;98274.94;5038748;28;20039;-60
2023/07/28 05:34:12;;;;;;;8.75;4.60;;;;;;;16.42;100.00;98287.78;5031095;28;20074;-60
2023/07/28 05:36:37;;;;;;;11.07;5.95;;;;;;;16.41;100.00;98292.44;5049271;28;20375;-60
2023/07/28 05:39:04;;;;;;;9.80;5.45;;;;;;;16.46;100.00;98288.13;5047905;28;20116;-67
2023/07/28 05:41:30;;;;;;;9.38;4.78;;;;;;;16.47;100.00;98290.59;5039197;28;20021;-66
2023/07/28 05:43:55;;;;;;;6.93;4.78;;;;;;;16.52;100.00;98292.56;5055686;28;20021;-66
2023/07/28 05:46:21;;;;;;;7.75;4.97;;;;;;;16.54;100.00;98299.44;5038111;28;20199;-66
2023/07/28 05:48:46;;;;;;;8.02;4.70;;;;;;;16.59;100.00;98295.94;5035029;28;20245;-60
2023/07/28 05:51:11;;;;;;;8.30;4.35;;;;;;;16.64;100.00;98296.00;5032093;28;20491;-60
2023/07/28 05:53:37;;;;;;;8.52;4.93;;;;;;;16.58;100.00;98297.84;5034759;28;20025;-60
2023/07/28 05:56:04;;;;;;;8.38;4.47;;;;;;;16.60;100.00;98294.84;5031940;28;20032;-60
2023/07/28 05:58:31;;;;;;;8.73;4.97;;;;;;;16.61;100.00;98285.56;5029134;28;20095;-61
2023/07/28 06:00:56;;;;;;;7.32;4.72;;;;;;;16.63;100.00;98291.59;5035818;28;20033;-61
2023/07/28 06:03:22;;;;;;;8.07;4.47;;;;;;;16.72;100.00;98292.81;5027842;28;20020;-60
2023/07/28 06:05:47;;;;;;;7.50;4.32;;;;;;;16.70;100.00;98294.16;5031468;28;20033;-60
2023/07/28 06:08:13;;;;;;;5.95;4.38;;;;;;;16.74;100.00;98289.81;5033403;28;20033;-60
2023/07/28 06:10:40;;;;;;;5.88;4.05;;;;;;;16.77;100.00;98290.19;5030066;28;20079;-60
2023/07/28 06:13:05;;;;;;;5.63;3.58;;;;;;;16.78;100.00;98294.53;5032824;28;20112;-60
2023/07/28 06:15:31;;;;;;;8.25;3.95;;;;;;;16.82;100.00;98275.72;5034192;28;20116;-63
2023/07/28 06:17:57;;;;;;;5.47;3.60;;;;;;;16.91;100.00;98287.03;5038360;28;20044;-59
2023/07/28 06:20:22;;;;;;;9.10;4.20;;;;;;;16.94;100.00;98287.34;5031272;28;20021;-59
2023/07/28 06:22:47;;;;;;;5.65;3.55;;;;;;;17.01;100.00;98279.75;5023817;28;20025;-60
2023/07/28 06:25:13;;;;;;;4.55;3.42;;;;;;;17.13;100.00;98287.78;5036532;28;20427;-60
2023/07/28 06:27:38;;;;;;;8.68;3.92;;;;;;;17.12;100.00;98293.53;5036378;28;20036;-60
2023/07/28 06:30:05;;;;;;;6.82;4.30;;;;;;;17.13;100.00;98296.00;5036602;28;20532;-63
2023/07/28 06:32:30;;;;;;;6.60;3.95;;;;;;;17.08;100.00;98296.78;5035217;28;20464;-60
2023/07/28 06:34:57;;;;;;;9.07;4.38;;;;;;;17.04;100.00;98303.84;5035778;28;20044;-60
2023/07/28 06:37:23;;;;;;;6.60;3.30;;;;;;;16.96;100.00;98298.03;5026002;28;20120;-60
2023/07/28 06:39:49;;;;;;;6.35;4.40;;;;;;;16.83;100.00;98300.06;5046750;28;20024;-61
2023/07/28 06:42:16;;;;;;;6.70;4.60;;;;;;;16.66;100.00;98302.00;5027269;28;20112;-61
2023/07/28 06:44:42;;;;;;;8.60;4.65;;;;;;;16.68;100.00;98324.44;5030527;28;20033;-62
2023/07/28 06:47:07;;;;;;;8.25;4.97;;;;;;;16.62;100.00;98330.94;5031292;28;20027;-62
2023/07/28 06:49:32;;;;;;;8.55;5.15;;;;;;;16.68;100.00;98334.53;5032239;28;20025;-62
2023/07/28 06:51:58;;;;;;;9.80;5.03;;;;;;;16.73;100.00;98335.44;5035749;28;20111;-62
2023/07/28 06:54:24;;;;;;;15.25;4.53;;;;;;;16.84;100.00;98333.66;5034342;28;20154;-61
2023/07/28 06:56:50;;;;;;;8.15;5.40;;;;;;;16.94;100.00;98343.91;5034056;28;20052;-62
2023/07/28 06:59:17;;;;;;;8.70;5.43;;;;;;;17.05;100.00;98351.94;5023972;28;20083;-61
2023/07/28 07:01:42;;;;;;;8.35;4.85;;;;;;;17.08;100.00;98340.53;5057594;28;20464;-61
2023/07/28 07:04:08;;;;;;;7.22;5.32;;;;;;;17.28;100.00;98331.69;5035186;28;20114;-61
2023/07/28 07:06:34;;;;;;;10.85;5.07;;;;;;;17.50;100.00;98336.25;5027778;28;20045;-68
2023/07/28 07:09:00;;;;;;;7.28;4.35;;;;;;;17.54;100.00;98329.19;5050279;28;20480;-61
2023/07/28 07:11:25;;;;;;;7.15;4.60;;;;;;;17.57;100.00;98331.41;5046724;28;20021;-68
2023/07/28 07:13:50;;;;;;;8.15;4.93;;;;;;;17.68;100.00;98338.63;5032595;28;20108;-67
2023/07/28 07:16:17;;;;;;;8.73;4.53;;;;;;;17.80;100.00;98343.94;5039469;28;20021;-60
2023/07/28 07:18:43;;;;;;;5.35;4.05;;;;;;;17.94;100.00;98336.09;5038891;28;20033;-67
2023/07/28 07:21:09;;;;;;;4.70;3.72;;;;;;;17.96;100.00;98337.50;5027252;28;20036;-66
2023/07/28 07:23:35;;;;;;;9.25;3.95;;;;;;;18.05;100.00;98337.00;5029763;28;20025;-67
2023/07/28 07:26:01;;;;;;;5.00;3.47;;;;;;;18.20;100.00;98322.59;5033413;28;20660;-71
2023/07/28 07:28:28;;;;;;;6.05;3.70;;;;;;;18.31;100.00;98318.81;5032000;28;20454;-60
2023/07/28 07:30:54;;;;;;;6.57;2.70;;;;;;;18.31;100.00;98324.28;5035899;28;20029;-61
2023/07/28 07:33:19;;;;;;;5.57;2.90;;;;;;;18.35;100.00;98325.41;5027848;28;20035;-67
2023/07/28 07:35:44;;;;;;;4.57;2.83;;;;;;;18.29;100.00;98321.00;5039057;28;20024;-66
2023/07/28 07:38:10;;;;;;;6.60;2.70;;;;;;;18.13;100.00;98325.53;5024167;28;20035;-66
2023/07/28 07:40:36;;;;;;;3.35;2.20;;;;;;;18.29;100.00;98331.97;5026858;28;20017;-66
2023/07/28 07:43:03;;;;;;;4.82;1.80;;;;;;;18.22;100.00;98325.91;5033671;28;20082;-67
2023/07/28 07:45:32;;;;;;;3.88;1.40;;;;;;;18.28;100.00;98328.38;5021370;28;20060;-66
2023/07/28 07:48:00;;;;;;;2.92;1.52;;;;;;;18.30;100.00;98328.94;5035837;28;20031;-66
2023/07/28 07:50:26;;;;;;;2.67;1.37;;;;;;;18.25;100.00;98334.41;5030656;28;20025;-67
2023/07/28 07:52:51;;;;;;;1.83;1.20;;;;;;;18.29;100.00;98337.44;5027782;28;20019;-66
2023/07/28 07:55:17;;;;;;;1.77;1.20;;;;;;;18.36;100.00;98338.00;5024893;28;20048;-60
2023/07/28 07:57:42;;;;;;;2.13;1.08;;;;;;;18.18;100.00;98340.13;5022342;28;20120;-61
2023/07/28 08:00:08;;;;;;;2.30;1.50;;;;;;;18.35;100.00;98350.06;5030829;28;20020;-59
2023/07/28 08:02:34;;;;;;;1.48;1.20;;;;;;;18.40;100.00;98339.16;5036317;28;20527;-59
2023/07/28 08:05:03;;;;;;;1.30;1.10;;;;;;;18.49;100.00;98342.19;5034035;28;20025;-60
2023/07/28 08:07:28;;;;;;;2.22;1.13;;;;;;;18.54;100.00;98336.75;5034593;28;20383;-60
2023/07/28 08:09:54;;;;;;;2.50;1.40;;;;;;;18.26;100.00;98347.00;5042976;28;20039;-60
2023/07/28 08:12:19;;;;;;;1.92;1.08;;;;;;;18.15;100.00;98356.22;5020971;28;20018;-60
2023/07/28 08:14:46;;;;;;;1.90;1.10;;;;;;;18.11;100.00;98355.94;5033606;28;20083;-59
2023/07/28 08:17:12;;;;;;;1.77;0.95;;;;;;;18.11;100.00;98358.69;5024940;28;20053;-58
2023/07/28 08:19:37;;;;;;;1.50;1.00;;;;;;;18.01;100.00;98357.78;5021768;28;20115;-66
2023/07/28 08:22:03;;;;;;;1.13;0.93;;;;;;;17.99;100.00;98365.44;5034902;28;20090;-59
2023/07/28 08:24:29;;;;;;;2.03;1.00;;;;;;;18.11;100.00;98364.16;5036182;28;20024;-66
2023/07/28 08:26:55;;;;;;;2.40;1.27;;;;;;;18.19;100.00;98362.84;5027317;28;20021;-58
2023/07/28 08:29:21;;;;;;;2.10;1.10;;;;;;;18.29;100.00;98370.31;5039311;28;20070;-65
2023/07/28 08:31:46;;;;;;;2.03;1.15;;;;;;;18.33;100.00;98360.47;5025420;28;20415;-59
2023/07/28 08:34:12;;;;;;;1.75;1.05;;;;;;;18.48;100.00;98363.28;5038860;28;20021;-59
2023/07/28 08:36:37;;;;;;;1.45;1.00;;;;;;;18.78;100.00;98361.81;5034232;28;20053;-58
2023/07/28 08:39:04;;;;;;;3.08;1.10;;;;;;;18.79;100.00;98349.78;5031737;28;20083;-65
2023/07/28 08:41:30;;;;;;;2.10;1.02;;;;;;;18.97;100.00;98354.78;5033373;28;20136;-65
2023/07/28 08:43:55;;;;;;;1.23;1.00;;;;;;;19.25;100.00;98353.47;5030115;28;20026;-65
2023/07/28 08:46:21;;;;;;;5.40;1.90;;;;;;;19.30;100.00;98329.91;5032317;28;20029;-65
2023/07/28 08:48:46;;;;;;;8.88;4.03;;;;;;;19.86;100.00;98344.50;5032132;28;20029;-65
2023/07/28 08:51:14;;;;;;;7.25;2.85;;;;;;;20.23;100.00;98329.63;5030348;28;20024;-65
2023/07/28 08:53:39;;;;;;;1.80;1.20;;;;;;;20.61;100.00;98312.78;5032972;28;20021;-66
2023/07/28 08:56:06;;;;;;;1.23;0.90;;;;;;;20.62;100.00;98312.53;5032756;28;20027;-65
2023/07/28 08:58:31;;;;;;;1.48;0.90;;;;;;;21.15;100.00;98301.78;5031965;28;21057;-62
2023/07/28 09:01:00;;;;;;;1.10;0.93;;;;;;;21.11;100.00;98303.44;5036419;28;20033;-65
2023/07/28 09:03:27;;;;;;;;;;;;;;;20.80;100.00;98302.78;5025956;28;20045;-64
2023/07/28 09:05:59;;;;;;;1.73;1.10;;;;;;;20.93;100.00;98306.84;5028686;28;19912;-64
2023/07/28 09:08:24;;;;;;;1.40;1.08;;;;;;;20.69;100.00;98310.28;5034462;28;20051;-60
2023/07/28 09:10:50;;;;;;;2.08;1.00;;;;;;;20.52;100.00;98315.28;5034252;28;20386;-60
2023/07/28 09:13:17;;;;;;;1.77;0.90;;;;;;;20.97;100.00;98305.19;5024673;28;20025;-60
2023/07/28 09:15:43;;;;;;;2.40;1.10;;;;;;;21.53;100.00;98310.34;5032122;28;20095;-59
2023/07/28 09:18:13;;;;;;;1.60;0.93;;;;;;;21.87;100.00;98287.50;5035367;28;20025;-59
2023/07/28 09:20:41;;;;;;;2.80;0.95;;;;;;;22.89;100.00;98286.34;5015588;28;20365;-60
2023/07/28 09:23:07;;;;;;;1.70;0.90;;;;;;;23.48;100.00;98283.31;5028412;28;20025;-60
2023/07/28 09:25:34;;;;;;;1.77;0.90;;;;;;;23.17;100.00;98281.84;5039259;28;20017;-62
2023/07/28 09:28:00;;;;;;;1.77;0.93;;;;;;;25.67;100.00;98261.44;5031063;28;20029;-66
2023/07/28 09:30:26;;;;;;;1.70;1.10;;;;;;;27.14;100.00;98265.97;5027760;28;20025;-67
2023/07/28 09:32:54;;;;;;;1.02;0.70;;;;;;;27.95;100.00;98267.25;5038555;28;20024;-66
2023/07/28 09:35:21;;;;;;;1.58;0.80;;;;;;;29.08;100.00;98261.19;5024296;28;20041;-67
2023/07/28 09:37:50;;;;;;;1.95;0.80;;;;;;;29.88;100.00;98252.63;5039087;28;20049;-66
2023/07/28 09:40:21;;;;;;;1.58;0.60;;;;;;;30.09;97.87;98260.94;5030066;28;20025;-66
2023/07/28 09:42:54;;;;;;;4.65;0.70;;;;;;;31.05;85.29;98267.25;5025595;28;20030;-66
2023/07/28 09:45:21;;;;;;;1.15;0.65;;;;;;;32.28;76.77;98260.03;5038216;28;20060;-66
2023/07/28 09:47:51;;;;;;;2.03;0.80;;;;;;;32.30;76.10;98254.91;5025138;28;20024;-68
2023/07/28 09:50:18;;;;;;;1.23;0.90;;;;;;;31.67;82.03;98249.97;5029048;28;20437;-69
2023/07/28 09:52:53;;;;;;;1.77;1.00;;;;;;;30.96;81.04;98262.63;5037267;28;20017;-68
2023/07/28 09:55:20;;;;;;;1.38;0.73;;;;;;;30.47;93.99;98254.28;5037014;28;20036;-68
2023/07/28 09:57:51;;;;;;;1.95;0.60;;;;;;;32.15;80.12;98252.06;5040021;28;20032;-68
2023/07/28 10:00:17;;;;;;;2.03;0.77;;;;;;;31.90;75.85;98249.41;5031090;28;20065;-68
2023/07/28 10:02:43;;;;;;;2.65;0.70;;;;;;;31.28;81.75;98253.59;5051161;28;20021;-68
2023/07/28 10:05:10;;;;;;;1.17;0.80;;;;;;;29.09;100.00;98250.88;5040050;28;20044;-68
2023/07/28 10:07:40;;;;;;;1.23;0.80;;;;;;;27.98;100.00;98258.25;5036728;28;20120;-68
2023/07/28 10:10:07;;;;;;;0.82;0.70;;;;;;;24.91;100.00;98253.81;5025827;28;20119;-67
2023/07/28 10:12:55;;;;;;;1.15;0.80;;;;;;;25.27;100.00;98261.31;5035184;28;20028;-61
2023/07/28 10:15:27;;;;;;;3.63;0.88;;;;;;;24.70;100.00;98267.25;5028401;28;20021;-60
2023/07/28 10:18:00;;;;;;;1.70;0.98;;;;;;;27.10;100.00;98263.03;5040680;28;20021;-60
2023/07/28 10:20:34;;;;;;;1.45;0.90;;;;;;;27.76;100.00;98262.03;5032842;28;20468;-68
2023/07/28 10:23:07;;;;;;;0.90;0.60;;;;;;;26.97;100.00;98260.41;5041847;28;20025;-67
2023/07/28 10:25:37;;;;;;;1.30;0.80;;;;;;;27.06;100.00;98255.66;5052136;28;20044;-68
2023/07/28 10:28:07;;;;;;;0.93;0.60;;;;;;;26.44;100.00;98265.78;5034410;28;20021;-67
2023/07/28 10:30:53;;;;;;;1.42;0.90;;;;;;;26.45;100.00;98258.28;5020357;28;20100;-67
2023/07/28 10:33:41;;;;;;;0.82;0.65;;;;;;;26.52;100.00;98268.97;5038553;28;20482;-67
2023/07/28 10:36:16;;;;;;;1.30;0.70;;;;;;;27.04;100.00;98269.06;5031175;28;20027;-66
2023/07/28 10:38:43;;;;;;;0.85;0.63;;;;;;;27.96;100.00;98272.50;5025173;28;20052;-67
2023/07/28 10:41:13;;;;;;;1.85;0.90;;;;;;;25.99;100.00;98271.47;5042184;28;20017;-69
2023/07/28 10:43:39;;;;;;;1.65;0.68;;;;;;;25.64;100.00;98266.81;5027073;28;20041;-68
2023/07/28 10:46:11;;;;;;;1.27;0.80;;;;;;;25.07;100.00;98265.38;5023941;28;20025;-68
2023/07/28 10:48:48;;;;;;;1.17;0.90;;;;;;;25.91;100.00;98268.63;5029472;28;20017;-67
2023/07/28 10:51:32;;;;;;;0.65;0.47;;;;;;;25.28;100.00;98270.44;5030267;28;20040;-69
2023/07/28 10:54:00;;;;;;;1.05;0.70;;;;;;;25.55;100.00;98272.31;5028014;28;20056;-69
2023/07/28 10:56:26;;;;;;;3.58;0.82;;;;;;;25.63;100.00;98277.09;5029210;28;20029;-67
2023/07/28 10:59:04;;;;;;;1.42;0.50;;;;;;;24.33;100.00;98282.09;5035441;28;20033;-66
2023/07/28 11:01:37;;;;;;;2.17;0.90;;;;;;;24.32;100.00;98277.72;5035424;28;20044;-67
2023/07/28 11:04:11;;;;;;;1.00;0.70;;;;;;;24.37;100.00;98285.09;5031502;28;20056;-68
2023/07/28 11:06:39;;;;;;;1.05;0.57;;;;;;;23.58;100.00;98286.75;5036800;28;20416;-67
2023/07/28 11:09:09;;;;;;;1.48;0.50;;;;;;;22.99;100.00;98288.19;5031976;28;20122;-67
2023/07/28 11:11:36;;;;;;;1.25;0.70;;;;;;;23.12;100.00;98290.19;5034371;28;20090;-67
2023/07/28 11:14:04;;;;;;;1.35;0.80;;;;;;;22.69;100.00;98290.22;5027592;28;20025;-68
2023/07/28 11:16:32;;;;;;;1.35;0.70;;;;;;;22.78;100.00;98300.59;5026864;28;20032;-67
2023/07/28 11:19:10;;;;;;;2.38;1.65;;;;;;;22.74;100.00;98294.81;5025627;28;20036;-67
2023/07/28 11:21:37;;;;;;;1.95;0.90;;;;;;;23.06;100.00;98299.69;5030922;28;20057;-68
2023/07/28 11:24:04;;;;;;;1.17;0.80;;;;;;;23.58;100.00;98308.03;5034439;28;20025;-67
2023/07/28 11:26:30;;;;;;;1.67;0.75;;;;;;;23.71;100.00;98310.00;5030819;28;20029;-68
2023/07/28 11:28:55;;;;;;;1.35;0.80;;;;;;;23.71;100.00;98307.25;5042936;28;20039;-66
2023/07/28 11:31:25;;;;;;;0.93;0.50;;;;;;;24.26;100.00;98299.13;5042864;28;20059;-69